Thornton, CO (80229)

8:57 AM MST on February 08, 2016 (GMT -0700)
Downing Park | | Change Station
CLOSE
Current Station
Personal Weather Station
Location: Thornton, CO
Elevation: 5328 ft
Nearby Weather Stations

Elev 5328 ft 39.87 °N, 104.97 °W | Updated 10 minutes ago

Partly Cloudy
Partly Cloudy
30.0 °F
Feels Like 30 °F
N
1.1
Wind Variable Wind from South

Today
High -- | Low -- °F
--% Chance of Precip.
Yesterday
High -- | Low -- °F
Precip. -- in
Pressure 30.35 in
Visibility 50.0 miles
Clouds Scattered Clouds 15000 ft
Windchill 30 °F
Dew Point 20 °F
Humidity 67%
Rainfall 0.00 in
Snow Depth Not available.
7:01 AM 5:27 PM
New Moon, 0% visible
METAR KBJC 081447Z 26004KT 50SM SCT150 M06/M08 A3035
Pressure 30.35 in
Visibility 50.0 miles
Clouds Scattered Clouds 15000 ft
Windchill 30 °F
Dew Point 20 °F
Humidity 67%
Rainfall 0.00 in
Snow Depth Not available.
7:01 AM 5:27 PM
New Moon, 0% visible
METAR KBJC 081447Z 26004KT 50SM SCT150 M06/M08 A3035

10-Day Weather Forecast

Almanac

Astronomy

Feb. 08, 2016 Rise Set
Actual Time
Civil Twilight
Nautical Twilight
Astronomical Twilight
Moon
Length of Visible Light
Length of Day
Tomorrow will be .
, % of the Moon is Illuminated

Today's Extremes

State Highs State Lows

Community

WunderPhotos

Upload Photos

1,891,440 photos uploaded!

WunderBlog® & News

Nearby

Air Quality

  Air Quality AQ Index Pollutant
Not available.

Snow Depth

Station Depth Elevation

Earthquake Activity

City Distance Mag. Time & Date
Minimum magnitude displayed is 2.5.

Coastal Water Temperatures

Place Temperature

Stations

Nearby Weather Stations

Station Location Temp. Windchill Dew Point Humidity Wind Precip. Elev Updated Type
                   

Watches & Warnings

There are currently no watches in effect.